Time;durP1;ratioP1;P1;durP2;ratioP2;P2;SDS_P1;SDS_P2;PMS_P1;PMS_P2;Temp;Humidity;BMP_temperature;BMP_pressure;BME280_temperature;BME280_humidity;BME280_pressure;Samples;Min_cycle;Max_cycle;Signal;HPM_P1;HPM_P2
2022/03/13 00:02:14;;;;;;;7.53;3.03;;;9.20;99.90;;;;;;5048456;28;20231;-84
2022/03/13 00:04:40;;;;;;;6.80;2.60;;;9.20;99.90;;;;;;5049455;28;20033;-84
2022/03/13 00:07:19;;;;;;;3.92;2.35;;;9.20;99.90;;;;;;5049515;28;20097;-85
2022/03/13 00:09:48;;;;;;;8.00;2.40;;;9.20;99.90;;;;;;5047815;28;20025;-84
2022/03/13 00:12:15;;;;;;;6.10;2.90;;;9.10;99.90;;;;;;5038643;28;20029;-85
2022/03/13 00:14:44;;;;;;;7.13;2.58;;;9.10;99.90;;;;;;5050147;28;20037;-85
2022/03/13 00:17:17;;;;;;;6.55;3.22;;;9.10;99.90;;;;;;5049347;28;20021;-84
2022/03/13 00:19:44;;;;;;;6.25;3.03;;;9.10;99.90;;;;;;5039346;28;20022;-84
2022/03/13 00:22:12;;;;;;;7.68;2.90;;;9.10;99.90;;;;;;5049343;28;20024;-84
2022/03/13 00:24:38;;;;;;;8.40;3.05;;;9.10;99.90;;;;;;5049717;28;20033;-84
2022/03/13 00:27:07;;;;;;;6.10;2.50;;;9.10;99.90;;;;;;5050490;28;20098;-83
2022/03/13 00:29:33;;;;;;;6.70;2.50;;;9.10;99.90;;;;;;5049399;28;20033;-81
2022/03/13 00:31:58;;;;;;;8.15;2.85;;;9.20;99.90;;;;;;5049006;28;20402;-82
2022/03/13 00:34:24;;;;;;;8.95;3.78;;;9.20;99.90;;;;;;5047601;28;20029;-83
2022/03/13 00:36:50;;;;;;;4.47;2.72;;;9.20;99.90;;;;;;5048768;28;20482;-82
2022/03/13 00:39:16;;;;;;;7.38;2.88;;;9.20;99.90;;;;;;5046595;28;20029;-82
2022/03/13 00:41:42;;;;;;;6.10;2.83;;;9.20;99.90;;;;;;5048331;28;20072;-83
2022/03/13 00:44:08;;;;;;;6.68;2.92;;;9.20;99.90;;;;;;5049368;28;20036;-82
2022/03/13 00:46:34;;;;;;;5.88;2.55;;;9.20;99.90;;;;;;5048787;28;20029;-81
2022/03/13 00:49:00;;;;;;;5.32;3.15;;;9.20;99.90;;;;;;5049064;28;20040;-82
2022/03/13 00:51:26;;;;;;;6.95;2.33;;;9.20;99.90;;;;;;5049200;28;20518;-82
2022/03/13 00:53:52;;;;;;;9.02;3.65;;;9.20;99.90;;;;;;5048279;28;20029;-82
2022/03/13 00:56:18;;;;;;;6.15;2.78;;;9.20;99.90;;;;;;5044762;28;20021;-82
2022/03/13 00:58:43;;;;;;;7.35;2.92;;;9.20;99.90;;;;;;5047201;28;20021;-82
2022/03/13 01:01:12;;;;;;;9.50;3.10;;;9.20;99.90;;;;;;5049150;28;20513;-82
2022/03/13 01:03:38;;;;;;;8.55;3.30;;;9.30;99.90;;;;;;5052117;28;20041;-83
2022/03/13 01:06:06;;;;;;;4.93;3.28;;;9.20;99.90;;;;;;5054276;28;20448;-83
2022/03/13 01:08:32;;;;;;;5.55;2.92;;;9.20;99.90;;;;;;5052551;28;20053;-82
2022/03/13 01:10:59;;;;;;;7.43;3.10;;;9.20;99.90;;;;;;5051624;28;20139;-81
2022/03/13 01:13:25;;;;;;;9.00;3.05;;;9.20;99.90;;;;;;5033559;28;20568;-84
2022/03/13 01:16:00;;;;;;;5.72;2.85;;;9.30;99.90;;;;;;5052237;28;20040;-83
2022/03/13 01:18:25;;;;;;;8.75;3.55;;;9.30;99.90;;;;;;5050983;28;20111;-84
2022/03/13 01:20:51;;;;;;;6.40;2.90;;;9.30;99.90;;;;;;5050361;28;20554;-82
2022/03/13 01:23:17;;;;;;;5.68;2.40;;;9.30;99.90;;;;;;5052276;28;20036;-82
2022/03/13 01:25:43;;;;;;;5.53;2.53;;;9.30;99.90;;;;;;5052388;28;20029;-81
2022/03/13 01:28:09;;;;;;;8.23;2.75;;;9.30;99.90;;;;;;5052746;28;20514;-82
2022/03/13 01:30:35;;;;;;;8.45;3.08;;;9.30;99.90;;;;;;5051261;28;20021;-82
2022/03/13 01:33:00;;;;;;;7.43;2.90;;;9.40;99.90;;;;;;5052245;28;20119;-82
2022/03/13 01:35:26;;;;;;;6.40;2.80;;;9.40;99.90;;;;;;5052103;28;20032;-83
2022/03/13 01:37:53;;;;;;;6.47;2.55;;;9.40;99.90;;;;;;5049563;28;20445;-84
2022/03/13 01:40:23;;;;;;;5.95;3.10;;;9.50;99.90;;;;;;5051776;28;20047;-84
2022/03/13 01:42:50;;;;;;;3.73;2.30;;;9.40;99.90;;;;;;5052309;28;20052;-84
2022/03/13 01:45:19;;;;;;;4.93;2.60;;;9.40;99.90;;;;;;5052548;28;20267;-84
2022/03/13 01:47:46;;;;;;;8.93;2.47;;;9.40;99.90;;;;;;5052682;28;20029;-84
2022/03/13 01:50:13;;;;;;;4.90;2.55;;;9.40;99.90;;;;;;5048883;28;20107;-84
2022/03/13 01:52:41;;;;;;;4.72;2.65;;;9.40;99.90;;;;;;5042939;28;20103;-83
2022/03/13 01:55:07;;;;;;;6.30;1.98;;;9.50;99.90;;;;;;5049339;28;20024;-82
2022/03/13 01:57:37;;;;;;;7.32;2.90;;;9.50;99.90;;;;;;5051065;28;20052;-83
2022/03/13 02:00:05;;;;;;;8.45;3.28;;;9.50;99.90;;;;;;5051230;28;20048;-82
2022/03/13 02:02:33;;;;;;;6.18;2.72;;;9.50;99.90;;;;;;5051882;28;20021;-82
2022/03/13 02:04:59;;;;;;;5.22;2.50;;;9.60;99.90;;;;;;5051374;28;20025;-82
2022/03/13 02:07:28;;;;;;;4.40;2.30;;;9.60;99.90;;;;;;5051689;28;20021;-83
2022/03/13 02:09:54;;;;;;;3.47;1.75;;;9.60;99.90;;;;;;5051926;28;20039;-84
2022/03/13 02:12:20;;;;;;;3.63;2.15;;;9.70;99.90;;;;;;5052100;28;20096;-84
2022/03/13 02:14:50;;;;;;;4.75;1.98;;;9.70;99.90;;;;;;5051090;28;20025;-84
2022/03/13 02:17:33;;;;;;;7.45;3.15;;;9.80;99.90;;;;;;5049111;28;20021;-83
2022/03/13 02:19:59;;;;;;;3.25;2.10;;;9.80;99.90;;;;;;5045678;28;20025;-84
2022/03/13 02:22:25;;;;;;;2.35;2.00;;;9.80;99.90;;;;;;5051469;28;20066;-84
2022/03/13 02:24:52;;;;;;;3.15;1.70;;;9.80;99.90;;;;;;5051133;28;20077;-84
2022/03/13 02:27:25;;;;;;;3.60;1.98;;;9.80;99.90;;;;;;5051578;28;20031;-83
2022/03/13 02:29:51;;;;;;;5.00;1.98;;;9.80;99.90;;;;;;5052134;28;20152;-83
2022/03/13 02:32:18;;;;;;;3.67;2.03;;;9.80;99.90;;;;;;5049479;28;20056;-83
2022/03/13 02:34:45;;;;;;;3.67;1.98;;;9.80;99.90;;;;;;5047137;28;20025;-83
2022/03/13 02:37:43;;;;;;;7.75;2.50;;;9.80;99.90;;;;;;5049434;28;20032;-82
2022/03/13 02:40:24;;;;;;;3.83;2.35;;;9.80;99.90;;;;;;5040938;28;20060;-82
2022/03/13 02:42:51;;;;;;;8.82;2.67;;;9.80;99.90;;;;;;5039326;28;20021;-83
2022/03/13 02:45:27;;;;;;;5.20;2.53;;;9.80;99.90;;;;;;5050938;28;20025;-83
2022/03/13 02:47:53;;;;;;;7.45;2.88;;;9.80;99.90;;;;;;5052382;28;20029;-83
2022/03/13 02:50:18;;;;;;;7.43;2.45;;;9.80;99.90;;;;;;5050493;28;20102;-82
2022/03/13 02:52:44;;;;;;;6.35;2.47;;;9.80;99.90;;;;;;5050726;28;20100;-82
2022/03/13 02:55:10;;;;;;;5.95;2.22;;;9.70;99.90;;;;;;5048586;28;20017;-82
2022/03/13 02:57:35;;;;;;;4.47;2.33;;;9.80;99.90;;;;;;5050930;28;20380;-81
2022/03/13 03:00:01;;;;;;;10.57;3.00;;;9.80;99.90;;;;;;5050844;28;20048;-83
2022/03/13 03:02:27;;;;;;;5.65;2.50;;;9.70;99.90;;;;;;5050548;28;20118;-83
2022/03/13 03:04:54;;;;;;;4.85;2.28;;;9.80;99.90;;;;;;5050573;28;20049;-82
2022/03/13 03:07:20;;;;;;;4.75;2.20;;;9.80;99.90;;;;;;5050108;28;20175;-83
2022/03/13 03:09:46;;;;;;;2.90;2.17;;;9.80;99.90;;;;;;5048524;28;20036;-82
2022/03/13 03:12:12;;;;;;;9.32;3.28;;;9.80;99.90;;;;;;5051764;28;20025;-83
2022/03/13 03:14:37;;;;;;;3.78;2.03;;;9.80;99.90;;;;;;5049919;28;20110;-83
2022/03/13 03:17:04;;;;;;;4.85;2.10;;;9.80;99.90;;;;;;5048103;28;20017;-83
2022/03/13 03:19:30;;;;;;;4.70;2.03;;;9.80;99.90;;;;;;5050373;28;20025;-83
2022/03/13 03:21:56;;;;;;;3.83;2.40;;;9.80;99.90;;;;;;5050488;28;20564;-82
2022/03/13 03:24:24;;;;;;;6.18;2.45;;;9.80;99.90;;;;;;5050573;28;20064;-82
2022/03/13 03:26:53;;;;;;;4.22;2.10;;;9.80;99.90;;;;;;5050782;28;20039;-82
2022/03/13 03:29:18;;;;;;;3.45;2.33;;;9.90;99.90;;;;;;5050082;28;20121;-83
2022/03/13 03:31:47;;;;;;;6.93;1.90;;;9.90;99.90;;;;;;5049867;28;20100;-84
2022/03/13 03:34:17;;;;;;;4.07;2.40;;;10.00;99.90;;;;;;5047537;28;20086;-85
2022/03/13 03:36:48;;;;;;;5.82;2.40;;;10.00;99.90;;;;;;5039371;28;20135;-85
2022/03/13 03:39:15;;;;;;;5.43;2.10;;;10.00;99.90;;;;;;5050659;28;20029;-85
2022/03/13 03:41:42;;;;;;;3.15;1.88;;;10.00;99.90;;;;;;5050236;28;20021;-85
2022/03/13 03:44:08;;;;;;;3.20;1.98;;;10.00;99.90;;;;;;5049963;28;20043;-84
2022/03/13 03:46:34;;;;;;;2.17;1.92;;;10.00;99.90;;;;;;5048623;28;20029;-84
2022/03/13 03:49:00;;;;;;;3.65;2.25;;;10.00;99.90;;;;;;5048757;28;20029;-84
2022/03/13 03:51:26;;;;;;;3.65;1.75;;;10.00;99.90;;;;;;5049925;28;20045;-85
2022/03/13 03:53:52;;;;;;;3.83;1.77;;;10.00;99.90;;;;;;5047481;28;20432;-84
2022/03/13 03:56:18;;;;;;;5.53;2.60;;;10.00;99.90;;;;;;5048308;28;20009;-85
2022/03/13 03:58:43;;;;;;;2.42;1.65;;;10.00;99.90;;;;;;5049837;28;20564;-84
2022/03/13 04:01:09;;;;;;;3.83;1.50;;;10.10;99.90;;;;;;5049686;28;20009;-85
2022/03/13 04:03:35;;;;;;;3.50;1.85;;;10.10;99.90;;;;;;5049600;28;20482;-85
2022/03/13 04:06:01;;;;;;;1.83;1.33;;;10.10;99.90;;;;;;5050888;28;20096;-85
2022/03/13 04:08:29;;;;;;;3.45;2.17;;;10.10;99.90;;;;;;5047138;28;20063;-85
2022/03/13 04:10:55;;;;;;;5.57;2.20;;;10.10;99.90;;;;;;5044835;28;20017;-84
2022/03/13 04:13:21;;;;;;;4.30;1.85;;;10.10;99.90;;;;;;5047321;28;20128;-83
2022/03/13 04:15:47;;;;;;;2.60;1.80;;;10.10;99.90;;;;;;5049392;28;20557;-82
2022/03/13 04:18:15;;;;;;;4.43;1.90;;;10.10;99.90;;;;;;5050289;28;20518;-84
2022/03/13 04:20:42;;;;;;;2.08;1.42;;;10.10;99.90;;;;;;5049945;28;20022;-84
2022/03/13 04:23:08;;;;;;;2.63;1.45;;;10.10;99.90;;;;;;5049294;28;20032;-82
2022/03/13 04:25:34;;;;;;;2.85;1.45;;;10.10;99.90;;;;;;5048347;28;20032;-84
2022/03/13 04:28:00;;;;;;;2.25;1.50;;;10.10;99.90;;;;;;5038350;28;20517;-84
2022/03/13 04:30:29;;;;;;;3.83;1.60;;;10.10;99.90;;;;;;5041597;28;20033;-84
2022/03/13 04:32:56;;;;;;;3.95;1.50;;;10.10;99.90;;;;;;5046971;28;20059;-84
2022/03/13 04:35:22;;;;;;;3.38;1.60;;;10.10;99.90;;;;;;5047906;28;20051;-82
2022/03/13 04:37:48;;;;;;;6.22;1.95;;;10.10;99.90;;;;;;5051090;28;20114;-83
2022/03/13 04:40:14;;;;;;;3.42;1.77;;;10.10;99.90;;;;;;5053223;28;20518;-83
2022/03/13 04:42:39;;;;;;;3.08;1.95;;;10.00;99.90;;;;;;5053446;28;20498;-82
2022/03/13 04:45:06;;;;;;;5.15;1.77;;;10.00;99.90;;;;;;5054783;28;20490;-83
2022/03/13 04:47:32;;;;;;;5.32;2.10;;;10.00;99.90;;;;;;5049149;28;20075;-83
2022/03/13 04:49:59;;;;;;;3.67;2.00;;;10.00;99.90;;;;;;5047911;28;20041;-82
2022/03/13 04:52:26;;;;;;;1.85;1.67;;;9.90;99.90;;;;;;5051000;28;20053;-82
2022/03/13 04:54:52;;;;;;;5.60;2.08;;;9.90;99.90;;;;;;5052798;28;20043;-82
2022/03/13 04:57:18;;;;;;;4.47;2.08;;;9.90;99.90;;;;;;5053178;28;20483;-85
2022/03/13 04:59:44;;;;;;;7.25;2.05;;;9.90;99.90;;;;;;5053971;28;20021;-84
2022/03/13 05:02:10;;;;;;;3.22;1.70;;;9.90;99.90;;;;;;5034868;28;20491;-84
2022/03/13 05:04:37;;;;;;;4.15;2.30;;;9.90;99.90;;;;;;5052667;28;20112;-85
2022/03/13 05:07:03;;;;;;;4.95;1.88;;;9.80;99.90;;;;;;5051497;28;20035;-84
2022/03/13 05:09:28;;;;;;;5.82;2.00;;;9.80;99.90;;;;;;5044575;28;20104;-84
2022/03/13 05:11:54;;;;;;;4.70;1.95;;;9.80;99.90;;;;;;5046190;28;20025;-82
2022/03/13 05:14:21;;;;;;;3.72;1.90;;;9.80;99.90;;;;;;5049035;28;20518;-83
2022/03/13 05:16:46;;;;;;;6.53;2.45;;;9.80;99.90;;;;;;5034512;28;20510;-83
2022/03/13 05:19:12;;;;;;;3.50;1.92;;;9.80;99.90;;;;;;5052753;28;20025;-84
2022/03/13 05:21:40;;;;;;;8.13;2.35;;;9.80;99.90;;;;;;5052697;28;20490;-84
2022/03/13 05:24:07;;;;;;;3.63;1.88;;;9.80;99.90;;;;;;5053901;28;20013;-84
2022/03/13 05:26:33;;;;;;;4.35;1.80;;;9.80;99.90;;;;;;5050180;28;20033;-84
2022/03/13 05:28:59;;;;;;;5.05;2.35;;;9.80;99.90;;;;;;5052451;28;20025;-84
2022/03/13 05:31:25;;;;;;;4.20;2.05;;;9.80;99.90;;;;;;5050198;28;20029;-84
2022/03/13 05:33:51;;;;;;;10.43;2.15;;;9.80;99.90;;;;;;5052225;28;20028;-84
2022/03/13 05:36:17;;;;;;;8.52;2.58;;;9.80;99.90;;;;;;5052192;28;20021;-84
2022/03/13 05:38:43;;;;;;;4.28;2.15;;;9.70;99.90;;;;;;5053216;28;20395;-84
2022/03/13 05:41:09;;;;;;;8.30;2.67;;;9.70;99.90;;;;;;5051235;28;20029;-84
2022/03/13 05:43:35;;;;;;;6.28;2.75;;;9.80;99.90;;;;;;5051345;28;20020;-85
2022/03/13 05:46:01;;;;;;;8.85;2.63;;;9.80;99.90;;;;;;5051185;28;20624;-84
2022/03/13 05:48:27;;;;;;;6.78;2.03;;;9.70;99.90;;;;;;5051870;28;20580;-84
2022/03/13 05:50:53;;;;;;;5.55;2.53;;;9.80;99.90;;;;;;5049716;28;20044;-84
2022/03/13 05:53:19;;;;;;;5.55;2.40;;;9.70;99.90;;;;;;5050172;28;20033;-84
2022/03/13 05:55:44;;;;;;;9.13;2.47;;;9.80;99.90;;;;;;5033921;28;20466;-84
2022/03/13 05:58:13;;;;;;;5.47;2.42;;;9.80;99.90;;;;;;5052164;28;20027;-84
2022/03/13 06:00:39;;;;;;;7.05;2.53;;;9.80;99.90;;;;;;5038410;28;20060;-84
2022/03/13 06:03:06;;;;;;;5.50;2.60;;;9.80;99.90;;;;;;5053053;28;20537;-83
2022/03/13 06:05:33;;;;;;;7.00;2.38;;;9.80;99.90;;;;;;5049621;28;20056;-83
2022/03/13 06:07:59;;;;;;;5.72;2.45;;;9.80;99.90;;;;;;5051329;28;20025;-84
2022/03/13 06:10:25;;;;;;;11.02;3.25;;;9.80;99.90;;;;;;5049364;28;20491;-84
2022/03/13 06:12:51;;;;;;;3.85;1.98;;;9.80;99.90;;;;;;5052100;28;20020;-84
2022/03/13 06:15:17;;;;;;;10.23;2.40;;;9.80;99.90;;;;;;5051695;28;20021;-84
2022/03/13 06:17:45;;;;;;;4.75;2.50;;;9.80;99.90;;;;;;5051872;28;20031;-84
2022/03/13 06:20:12;;;;;;;6.80;2.95;;;9.80;99.90;;;;;;5051330;28;20078;-84
2022/03/13 06:22:40;;;;;;;7.10;2.75;;;9.80;99.90;;;;;;5051394;28;20021;-84
2022/03/13 06:25:08;;;;;;;5.05;2.05;;;9.90;99.90;;;;;;5050321;28;20025;-84
2022/03/13 06:27:35;;;;;;;9.00;2.47;;;9.90;99.90;;;;;;5051638;28;20063;-83
2022/03/13 06:30:09;;;;;;;5.15;2.17;;;9.90;99.90;;;;;;5048978;28;20029;-84
2022/03/13 06:32:35;;;;;;;6.32;2.45;;;9.80;99.90;;;;;;5049426;28;20528;-84
2022/03/13 06:35:01;;;;;;;5.00;2.20;;;9.80;99.90;;;;;;5033028;28;20033;-84
2022/03/13 06:37:27;;;;;;;6.43;2.13;;;9.90;99.90;;;;;;5051034;28;20487;-84
2022/03/13 06:39:53;;;;;;;2.50;2.10;;;9.90;99.90;;;;;;5051281;28;20154;-84
2022/03/13 06:42:18;;;;;;;7.75;2.33;;;9.90;99.90;;;;;;5051655;28;20017;-85
2022/03/13 06:44:44;;;;;;;4.97;2.70;;;10.00;99.90;;;;;;5050239;28;20029;-84
2022/03/13 06:47:10;;;;;;;4.65;2.25;;;10.00;99.90;;;;;;5050490;28;20040;-84
2022/03/13 06:49:36;;;;;;;3.88;2.00;;;10.00;99.90;;;;;;5050623;28;20041;-84
2022/03/13 06:52:02;;;;;;;6.13;2.28;;;10.00;99.90;;;;;;5050936;28;20533;-84
2022/03/13 06:54:27;;;;;;;5.57;2.08;;;10.00;99.90;;;;;;5050443;28;20522;-84
2022/03/13 06:56:53;;;;;;;6.75;2.58;;;10.00;99.90;;;;;;5052194;28;20541;-83
2022/03/13 06:59:19;;;;;;;4.47;2.17;;;10.00;99.90;;;;;;5050553;28;20028;-84
2022/03/13 07:01:46;;;;;;;4.40;1.90;;;10.10;99.90;;;;;;5049345;28;20067;-83
2022/03/13 07:04:12;;;;;;;3.25;1.75;;;10.10;99.90;;;;;;5049770;28;20058;-84
2022/03/13 07:06:38;;;;;;;6.25;1.83;;;10.00;99.90;;;;;;5050521;28;20124;-84
2022/03/13 07:09:04;;;;;;;6.80;2.58;;;10.10;99.90;;;;;;5048139;28;20021;-84
2022/03/13 07:11:33;;;;;;;4.88;2.08;;;10.10;99.90;;;;;;5048752;28;20086;-84
2022/03/13 07:14:01;;;;;;;5.43;1.92;;;10.10;99.90;;;;;;5050373;28;20029;-84
2022/03/13 07:16:27;;;;;;;5.32;2.38;;;10.20;99.90;;;;;;5050377;28;20025;-84
2022/03/13 07:18:53;;;;;;;3.97;2.45;;;10.20;99.90;;;;;;5050341;28;20021;-83
2022/03/13 07:21:18;;;;;;;7.28;2.50;;;10.20;99.90;;;;;;5050357;28;20527;-84
2022/03/13 07:23:44;;;;;;;5.18;2.00;;;10.20;99.90;;;;;;5048390;28;20078;-85
2022/03/13 07:26:10;;;;;;;6.03;2.38;;;10.20;99.90;;;;;;5050255;28;20042;-84
2022/03/13 07:28:36;;;;;;;2.97;1.85;;;10.30;99.90;;;;;;5048046;28;20021;-84
2022/03/13 07:31:02;;;;;;;5.82;2.80;;;10.30;99.90;;;;;;5050293;28;20078;-84
2022/03/13 07:33:29;;;;;;;4.40;2.20;;;10.40;99.90;;;;;;5049498;28;20017;-84
2022/03/13 07:35:55;;;;;;;5.88;2.22;;;10.50;99.90;;;;;;5051255;28;20151;-84
2022/03/13 07:38:21;;;;;;;4.38;2.35;;;10.50;99.90;;;;;;5049503;28;20017;-84
2022/03/13 07:40:47;;;;;;;4.53;2.58;;;10.60;99.90;;;;;;5049219;28;20078;-84
2022/03/13 07:43:13;;;;;;;7.93;2.30;;;10.60;99.90;;;;;;5049034;28;20113;-84
2022/03/13 07:45:39;;;;;;;6.32;2.38;;;10.70;99.90;;;;;;5050039;28;20040;-84
2022/03/13 07:48:04;;;;;;;4.43;2.28;;;10.70;99.90;;;;;;5047656;28;20033;-84
2022/03/13 07:50:30;;;;;;;5.68;2.45;;;10.80;99.90;;;;;;5049476;28;20514;-84
2022/03/13 07:52:57;;;;;;;9.85;2.70;;;10.80;99.90;;;;;;5031739;28;20502;-84
2022/03/13 07:55:23;;;;;;;7.55;2.25;;;10.80;99.90;;;;;;5049808;28;20079;-84
2022/03/13 07:57:49;;;;;;;6.93;2.58;;;10.90;99.90;;;;;;5050047;28;20025;-84
2022/03/13 08:00:17;;;;;;;6.05;2.20;;;10.90;99.90;;;;;;5050209;28;20025;-84
2022/03/13 08:02:46;;;;;;;4.88;2.25;;;10.90;99.90;;;;;;5050526;28;20529;-84
2022/03/13 08:05:16;;;;;;;4.97;2.25;;;10.90;99.90;;;;;;5049885;28;20149;-85
2022/03/13 08:07:43;;;;;;;7.35;2.63;;;11.00;99.90;;;;;;5046439;28;20537;-85
2022/03/13 08:10:10;;;;;;;4.28;2.30;;;11.00;99.90;;;;;;5049638;28;20411;-85
2022/03/13 08:12:38;;;;;;;4.00;1.98;;;10.90;99.90;;;;;;5048658;28;20131;-85
2022/03/13 08:15:06;;;;;;;4.15;2.30;;;10.80;99.90;;;;;;5050645;28;20100;-85
2022/03/13 08:17:32;;;;;;;7.43;2.78;;;10.80;99.90;;;;;;5049156;28;20494;-85
2022/03/13 08:19:59;;;;;;;4.70;2.20;;;10.80;99.90;;;;;;5048431;28;20517;-85
2022/03/13 08:22:25;;;;;;;3.05;2.10;;;10.70;99.90;;;;;;5048130;28;20027;-85
2022/03/13 08:24:51;;;;;;;8.27;2.33;;;10.70;99.90;;;;;;5049529;28;20506;-84
2022/03/13 08:27:17;;;;;;;4.00;1.60;;;10.70;99.90;;;;;;5046914;28;20029;-85
2022/03/13 08:29:44;;;;;;;3.33;1.58;;;10.70;99.90;;;;;;5048892;28;20505;-85
2022/03/13 08:32:10;;;;;;;2.80;1.60;;;10.80;99.90;;;;;;5049090;28;20162;-84
2022/03/13 08:34:37;;;;;;;3.42;2.22;;;10.80;99.90;;;;;;5049230;28;20067;-85
2022/03/13 08:37:04;;;;;;;6.55;3.13;;;10.80;99.90;;;;;;5031317;28;20017;-85
2022/03/13 08:39:30;;;;;;;5.65;2.58;;;10.80;99.90;;;;;;5049121;28;20029;-85
2022/03/13 08:41:55;;;;;;;4.85;3.25;;;10.70;99.90;;;;;;5048961;28;20032;-85
2022/03/13 08:44:21;;;;;;;3.78;2.70;;;10.50;99.90;;;;;;5048797;28;20036;-85
2022/03/13 08:46:47;;;;;;;1.45;1.23;;;10.30;99.90;;;;;;5046186;28;20029;-85
2022/03/13 08:49:14;;;;;;;4.38;1.25;;;10.10;99.90;;;;;;5048939;28;20033;-85
2022/03/13 08:51:40;;;;;;;1.80;1.08;;;9.90;99.90;;;;;;5036967;28;20025;-84
2022/03/13 08:54:07;;;;;;;4.05;2.03;;;9.70;99.90;;;;;;5050420;28;20021;-84
2022/03/13 08:56:33;;;;;;;4.20;1.70;;;9.60;99.90;;;;;;5049118;28;20072;-84
2022/03/13 08:58:59;;;;;;;8.80;4.60;;;9.50;99.90;;;;;;5049079;28;20031;-84
2022/03/13 09:01:25;;;;;;;5.53;3.30;;;9.40;99.90;;;;;;5046846;28;20021;-85
2022/03/13 09:03:51;;;;;;;5.28;3.25;;;9.30;99.90;;;;;;5049032;28;20533;-85
2022/03/13 09:06:17;;;;;;;9.45;4.45;;;9.30;99.90;;;;;;5049237;28;20061;-85
2022/03/13 09:08:43;;;;;;;7.30;3.15;;;9.20;99.90;;;;;;5047026;28;20083;-85
2022/03/13 09:11:09;;;;;;;3.97;2.10;;;9.10;99.90;;;;;;5049144;28;20565;-86
2022/03/13 09:13:36;;;;;;;3.97;2.17;;;9.10;99.90;;;;;;5048755;28;20055;-87
2022/03/13 09:16:03;;;;;;;2.20;1.63;;;9.10;99.90;;;;;;5048860;28;20036;-87
2022/03/13 09:18:30;;;;;;;2.92;1.17;;;9.00;99.90;;;;;;5030972;28;20024;-86
2022/03/13 09:20:56;;;;;;;5.28;2.97;;;9.00;99.90;;;;;;5049974;28;20017;-87
2022/03/13 09:23:23;;;;;;;4.72;2.65;;;9.00;99.90;;;;;;5050049;28;20057;-87
2022/03/13 09:25:50;;;;;;;4.55;1.80;;;9.00;99.90;;;;;;5049903;28;20051;-87
2022/03/13 09:28:16;;;;;;;4.70;1.70;;;9.10;99.90;;;;;;5052318;28;20083;-87
2022/03/13 09:30:42;;;;;;;5.13;2.00;;;9.00;99.90;;;;;;5052556;28;20037;-87
2022/03/13 09:33:08;;;;;;;3.50;2.97;;;9.00;99.90;;;;;;5053536;28;20029;-87
2022/03/13 09:35:34;;;;;;;4.70;2.35;;;9.00;99.90;;;;;;5052397;28;20036;-87
2022/03/13 09:38:00;;;;;;;2.88;1.73;;;9.00;99.90;;;;;;5051924;28;20032;-87
2022/03/13 09:40:27;;;;;;;3.97;1.25;;;9.00;99.90;;;;;;5051317;28;20021;-87
2022/03/13 09:42:53;;;;;;;4.53;1.92;;;9.00;99.90;;;;;;5052167;28;20063;-87
2022/03/13 09:45:19;;;;;;;2.03;1.25;;;9.00;99.90;;;;;;5049734;28;20025;-87
2022/03/13 09:47:45;;;;;;;2.05;1.20;;;9.00;99.90;;;;;;5051260;28;20016;-87
2022/03/13 09:50:12;;;;;;;1.88;1.27;;;8.90;99.90;;;;;;5052025;28;20529;-87
2022/03/13 09:52:40;;;;;;;2.42;1.25;;;8.90;99.90;;;;;;5051927;28;20025;-87
2022/03/13 09:55:08;;;;;;;1.58;1.20;;;8.90;99.90;;;;;;5052247;28;20167;-87
2022/03/13 09:57:36;;;;;;;1.00;0.82;;;8.90;99.90;;;;;;5052102;28;20048;-87
2022/03/13 10:00:05;;;;;;;1.73;1.63;;;8.90;99.90;;;;;;5053243;28;20490;-86
2022/03/13 10:02:37;;;;;;;2.70;2.03;;;8.90;99.90;;;;;;5051672;28;20017;-87
2022/03/13 10:05:14;;;;;;;1.83;1.55;;;8.90;99.90;;;;;;5049206;28;20044;-87
2022/03/13 10:07:49;;;;;;;6.35;4.35;;;8.90;99.90;;;;;;5051110;28;20021;-87
2022/03/13 10:10:15;;;;;;;3.95;2.28;;;8.90;99.90;;;;;;5051661;28;20029;-86
2022/03/13 10:12:41;;;;;;;3.70;2.13;;;8.90;99.90;;;;;;5052039;28;20024;-87
2022/03/13 10:15:08;;;;;;;4.47;2.47;;;8.90;99.90;;;;;;5052764;28;20029;-86
2022/03/13 10:17:37;;;;;;;3.47;2.08;;;8.90;99.90;;;;;;5051382;28;20074;-86
2022/03/13 10:20:19;;;;;;;6.93;3.78;;;8.90;99.90;;;;;;5057230;28;20028;-87
2022/03/13 10:22:49;;;;;;;6.38;4.00;;;8.90;99.90;;;;;;5040795;28;20021;-86
2022/03/13 10:25:29;;;;;;;4.80;3.67;;;8.90;99.90;;;;;;5049533;28;20040;-87
2022/03/13 10:28:18;;;;;;;3.17;2.33;;;8.80;99.90;;;;;;5051234;28;20025;-86
2022/03/13 10:30:47;;;;;;;9.02;4.63;;;8.80;99.90;;;;;;5038340;28;20483;-86
2022/03/13 10:33:13;;;;;;;15.93;7.80;;;8.90;99.90;;;;;;5051723;28;20013;-86
2022/03/13 10:35:39;;;;;;;18.15;9.23;;;8.90;99.90;;;;;;5050985;28;20024;-86
2022/03/13 10:38:19;;;;;;;20.13;9.90;;;8.90;99.90;;;;;;5050937;28;20071;-86
2022/03/13 10:40:49;;;;;;;16.17;7.70;;;8.80;99.90;;;;;;5050610;28;20025;-87
2022/03/13 10:43:20;;;;;;;12.15;5.75;;;8.80;99.90;;;;;;5050258;28;20021;-87
2022/03/13 10:45:53;;;;;;;8.35;4.53;;;8.70;99.90;;;;;;5051222;28;20052;-87
2022/03/13 10:48:33;;;;;;;13.77;7.47;;;8.60;99.90;;;;;;5048491;28;20036;-85
2022/03/13 10:51:04;;;;;;;10.35;6.65;;;8.60;99.90;;;;;;5052308;28;20059;-86
2022/03/13 10:53:31;;;;;;;10.30;5.60;;;8.70;99.90;;;;;;5051047;28;20102;-87
2022/03/13 10:56:02;;;;;;;10.23;5.18;;;8.60;99.90;;;;;;5050431;28;20033;-86
2022/03/13 10:58:32;;;;;;;8.75;5.35;;;8.60;99.90;;;;;;5050565;28;20495;-87
2022/03/13 11:01:07;;;;;;;5.90;3.60;;;8.60;99.90;;;;;;5049015;28;20040;-86
2022/03/13 11:03:34;;;;;;;5.60;3.85;;;8.70;99.90;;;;;;5050868;28;26355;-86
2022/03/13 11:06:01;;;;;;;5.65;3.50;;;8.80;99.90;;;;;;5042190;28;20491;-87
2022/03/13 11:08:28;;;;;;;7.53;5.28;;;8.90;99.90;;;;;;5046603;28;20025;-87
2022/03/13 11:10:55;;;;;;;4.20;2.70;;;8.80;99.90;;;;;;5049640;28;20059;-87
2022/03/13 11:13:26;;;;;;;5.13;3.20;;;8.70;99.90;;;;;;5050532;28;20285;-86
2022/03/13 11:15:56;;;;;;;4.68;2.80;;;8.70;99.90;;;;;;5050371;28;20025;-86
2022/03/13 11:18:28;;;;;;;6.50;3.88;;;8.90;99.90;;;;;;5050982;28;20031;-87
2022/03/13 11:20:54;;;;;;;9.10;4.28;;;9.00;99.90;;;;;;5051529;28;20057;-86
2022/03/13 11:23:20;;;;;;;4.80;3.08;;;9.10;99.90;;;;;;5047837;28;20064;-86
2022/03/13 11:25:49;;;;;;;2.67;1.60;;;9.00;99.90;;;;;;5049371;28;20032;-87
2022/03/13 11:28:16;;;;;;;2.75;1.98;;;9.10;99.90;;;;;;5050285;28;20494;-87
2022/03/13 11:30:42;;;;;;;6.78;4.80;;;9.10;99.90;;;;;;5050421;28;20043;-87
2022/03/13 11:33:28;;;;;;;3.33;2.70;;;9.20;99.90;;;;;;5051590;28;20070;-87
2022/03/13 11:36:29;;;;;;;3.58;2.88;;;9.10;99.90;;;;;;5049321;28;20044;-87
2022/03/13 11:39:00;;;;;;;4.70;3.13;;;9.10;99.90;;;;;;5033310;28;20495;-86
2022/03/13 11:41:40;;;;;;;3.42;1.50;;;9.20;99.90;;;;;;5045393;28;20036;-87
2022/03/13 11:44:30;;;;;;;3.22;2.28;;;9.10;99.90;;;;;;5050150;28;20021;-86
2022/03/13 11:46:58;;;;;;;2.70;1.65;;;9.10;99.90;;;;;;5049758;28;20036;-86
2022/03/13 11:49:29;;;;;;;3.78;2.20;;;9.10;99.90;;;;;;5049764;28;20098;-86
2022/03/13 11:52:10;;;;;;;7.32;4.55;;;9.10;99.90;;;;;;5036888;28;20033;-86
2022/03/13 11:54:46;;;;;;;5.28;2.20;;;9.10;99.90;;;;;;5049110;28;20033;-86
2022/03/13 11:57:14;;;;;;;6.95;4.20;;;9.10;99.90;;;;;;5050958;28;20025;-87
2022/03/13 11:59:40;;;;;;;2.47;2.15;;;9.10;99.90;;;;;;5046767;28;20026;-86
2022/03/13 12:02:41;;;;;;;2.42;1.60;;;9.10;99.90;;;;;;5042791;28;20084;-86
2022/03/13 12:05:28;;;;;;;2.10;1.20;;;9.10;99.90;;;;;;5038211;28;20103;-87
2022/03/13 12:07:56;;;;;;;2.28;1.30;;;9.00;99.90;;;;;;5049292;28;20025;-87
2022/03/13 12:10:41;;;;;;;1.75;1.63;;;9.00;99.90;;;;;;5049304;28;20245;-87
2022/03/13 12:13:09;;;;;;;2.35;1.73;;;9.00;99.90;;;;;;5049569;28;20521;-87
2022/03/13 12:15:35;;;;;;;2.90;2.53;;;8.90;99.90;;;;;;5049375;28;20047;-87
2022/03/13 12:18:17;;;;;;;3.33;2.30;;;8.90;99.90;;;;;;5049929;28;20402;-87
2022/03/13 12:20:43;;;;;;;5.40;2.97;;;9.00;99.90;;;;;;5046617;28;20025;-87
2022/03/13 12:23:09;;;;;;;7.72;4.53;;;8.90;99.90;;;;;;5047791;28;20087;-87
2022/03/13 12:25:36;;;;;;;14.20;7.95;;;8.90;99.90;;;;;;5049053;28;20404;-86
2022/03/13 12:28:02;;;;;;;12.95;7.53;;;8.80;99.90;;;;;;5049563;28;20087;-87
2022/03/13 12:30:35;;;;;;;8.00;5.25;;;8.70;99.90;;;;;;5049297;28;20024;-87
2022/03/13 12:33:05;;;;;;;5.10;3.33;;;8.60;99.90;;;;;;5050648;28;20130;-87
2022/03/13 12:35:32;;;;;;;5.45;3.42;;;8.60;99.90;;;;;;5049173;28;20100;-87
2022/03/13 12:38:02;;;;;;;6.65;3.45;;;8.70;99.90;;;;;;5048810;28;20029;-86
2022/03/13 12:40:30;;;;;;;4.93;3.17;;;8.50;99.90;;;;;;5046426;28;20013;-87
2022/03/13 12:43:00;;;;;;;5.38;3.65;;;8.50;99.90;;;;;;5044106;28;20029;-87
2022/03/13 12:45:27;;;;;;;4.47;2.63;;;8.50;99.90;;;;;;5048753;28;20045;-87
2022/03/13 12:47:59;;;;;;;2.90;2.22;;;8.40;99.90;;;;;;5050256;28;20025;-87
2022/03/13 12:50:26;;;;;;;3.08;2.28;;;8.30;99.90;;;;;;5048817;28;20098;-87
2022/03/13 12:53:02;;;;;;;2.83;2.20;;;8.40;99.90;;;;;;5049172;28;20021;-87
2022/03/13 12:55:28;;;;;;;2.83;2.10;;;8.30;99.90;;;;;;5038218;28;20116;-87
2022/03/13 12:57:56;;;;;;;3.47;1.75;;;8.30;99.90;;;;;;5048732;28;20048;-87